Terminal Aerodrome Forecast
Issued by NWS Central Illinois

Home | Current Version | Previous Version | Text Only | Print | Product List | Glossary On
Versions: 1 2 3 4 5 6 7 8 9 10 11 12 13 14 15
130
FTUS43 KILX 241729
TAFPIA
TAF
KPIA 241729Z 2418/2518 21018G27KT P6SM SCT150
     FM250100 19007KT P6SM BKN060
     FM250300 17005KT 6SM -SHRA VCTS OVC025CB
     FM250700 16007KT 3SM SHRA BR VCTS OVC015CB
     FM251200 13008KT 3SM SHRA BR OVC010=

USA.gov is the U.S. government's official web portal to all federal, state and local government web resources and services.